EJU38UD LEPA-EGHI
Flight info
| Callsign | EJU38UD |
|---|---|
| Flight time | N/A |
| Altitude | 38000 |
| Route | DRAGO DCT PAPOS DCT UMURE DCT XIKEN DCT KARES DCT ARBEK DCT REBUL DCT USKAR DCT MOPAS DCT GIROM DCT AGN DCT SECHE DCT UVELI DCT CNA DCT MANAK UY110 ORIST Y110 THRED |
| Aircraft | A320/M-SDE2E3FGHIJ1RWXYZ/LB1 |
Departure
| Time | N/A |
|---|---|
| Airport | Palma de Mallorca Airport (LEPA) |
Arrival
| Time | 2026-05-06 11:12 |
|---|---|
| Airport | Southampton Airport (EGHI) |
| Time | Latitude | Longitude | Altitude | Speed | Heading |
|---|---|---|---|---|---|
| 2026-05-06 10:21 | 46.26373 | -1.00000 | 37957 ft | 437 kts | 320° |
| 2026-05-06 10:21 | 46.28746 | -1.02744 | 37957 ft | 437 kts | 320° |
| 2026-05-06 10:22 | 46.33490 | -1.08241 | 37948 ft | 437 kts | 320° |
| 2026-05-06 10:22 | 46.38200 | -1.13708 | 37958 ft | 437 kts | 320° |
| 2026-05-06 10:23 | 46.42937 | -1.19222 | 37939 ft | 437 kts | 320° |
| 2026-05-06 10:23 | 46.47670 | -1.24747 | 37949 ft | 437 kts | 320° |
| 2026-05-06 10:24 | 46.52396 | -1.30270 | 37954 ft | 436 kts | 320° |
| 2026-05-06 10:24 | 46.57110 | -1.35803 | 37963 ft | 436 kts | 320° |
| 2026-05-06 10:25 | 46.62143 | -1.40686 | 37942 ft | 437 kts | 333° |
| 2026-05-06 10:25 | 46.67616 | -1.44537 | 37947 ft | 437 kts | 333° |
| 2026-05-06 10:26 | 46.73091 | -1.48410 | 37948 ft | 438 kts | 332° |
| 2026-05-06 10:26 | 46.78562 | -1.52306 | 37948 ft | 437 kts | 333° |
| 2026-05-06 10:27 | 46.84032 | -1.56203 | 37944 ft | 438 kts | 334° |
| 2026-05-06 10:27 | 46.86890 | -1.57754 | 37946 ft | 439 kts | 345° |
| 2026-05-06 10:27 | 46.89888 | -1.58604 | 37949 ft | 440 kts | 354° |
| 2026-05-06 10:28 | 46.95994 | -1.59244 | 37951 ft | 440 kts | 354° |
| 2026-05-06 10:28 | 47.02110 | -1.59859 | 37957 ft | 441 kts | 355° |
| 2026-05-06 10:29 | 47.08229 | -1.60475 | 37955 ft | 441 kts | 355° |
| 2026-05-06 10:29 | 47.14346 | -1.61108 | 37956 ft | 441 kts | 354° |
| 2026-05-06 10:30 | 47.20453 | -1.61801 | 37952 ft | 440 kts | 354° |
| 2026-05-06 10:30 | 47.26555 | -1.62647 | 37950 ft | 440 kts | 353° |
| 2026-05-06 10:31 | 47.32651 | -1.63525 | 37953 ft | 440 kts | 354° |
| 2026-05-06 10:31 | 47.38753 | -1.64373 | 37956 ft | 440 kts | 354° |
| 2026-05-06 10:32 | 47.44811 | -1.65231 | 37958 ft | 440 kts | 352° |
| 2026-05-06 10:32 | 47.50912 | -1.66104 | 37965 ft | 440 kts | 353° |
| 2026-05-06 10:33 | 47.57014 | -1.66970 | 37970 ft | 441 kts | 353° |
| 2026-05-06 10:33 | 47.63114 | -1.67837 | 37974 ft | 440 kts | 353° |
| 2026-05-06 10:34 | 47.69198 | -1.68712 | 37972 ft | 439 kts | 353° |
| 2026-05-06 10:34 | 47.75276 | -1.69584 | 37971 ft | 439 kts | 354° |
| 2026-05-06 10:35 | 47.81350 | -1.70461 | 37983 ft | 439 kts | 353° |
| 2026-05-06 10:35 | 47.87428 | -1.71340 | 37979 ft | 439 kts | 353° |
| 2026-05-06 10:36 | 47.93508 | -1.72230 | 37979 ft | 439 kts | 354° |
| 2026-05-06 10:36 | 47.99590 | -1.73117 | 37981 ft | 439 kts | 354° |
| 2026-05-06 10:37 | 48.05675 | -1.73997 | 37978 ft | 439 kts | 354° |
| 2026-05-06 10:37 | 48.11789 | -1.74237 | 37976 ft | 440 kts | 358° |
| 2026-05-06 10:38 | 48.16878 | -1.74291 | 37975 ft | 440 kts | 358° |
| 2026-05-06 10:38 | 48.23004 | -1.74363 | 37980 ft | 440 kts | 358° |
| 2026-05-06 10:39 | 48.29136 | -1.74434 | 37979 ft | 441 kts | 358° |
| 2026-05-06 10:39 | 48.35266 | -1.74510 | 37978 ft | 441 kts | 358° |
| 2026-05-06 10:40 | 48.41398 | -1.74583 | 37979 ft | 441 kts | 358° |
| 2026-05-06 10:40 | 48.47533 | -1.74651 | 37986 ft | 441 kts | 358° |
| 2026-05-06 10:41 | 48.53668 | -1.74731 | 37986 ft | 441 kts | 359° |
| 2026-05-06 10:41 | 48.59800 | -1.74814 | 37985 ft | 441 kts | 358° |
| 2026-05-06 10:42 | 48.65935 | -1.74883 | 37996 ft | 441 kts | 358° |
| 2026-05-06 10:42 | 48.72059 | -1.74952 | 37533 ft | 439 kts | 359° |
| 2026-05-06 10:43 | 48.75070 | -1.74989 | 36902 ft | 438 kts | 358° |
| 2026-05-06 10:43 | 48.78109 | -1.75027 | 36283 ft | 436 kts | 358° |
| 2026-05-06 10:43 | 48.81125 | -1.75066 | 35825 ft | 430 kts | 359° |
| 2026-05-06 10:44 | 48.87039 | -1.75142 | 34972 ft | 420 kts | 359° |
| 2026-05-06 10:44 | 48.89941 | -1.75175 | 34558 ft | 414 kts | 359° |
| 2026-05-06 10:44 | 48.92807 | -1.75186 | 34123 ft | 410 kts | 0° |
| 2026-05-06 10:44 | 48.95645 | -1.75119 | 33677 ft | 405 kts | 1° |
| 2026-05-06 10:45 | 48.98447 | -1.75001 | 33182 ft | 401 kts | 2° |
| 2026-05-06 10:45 | 49.01230 | -1.74864 | 32654 ft | 399 kts | 1° |
| 2026-05-06 10:45 | 49.03993 | -1.74727 | 32167 ft | 395 kts | 1° |
| 2026-05-06 10:45 | 49.06732 | -1.74599 | 31655 ft | 393 kts | 1° |
| 2026-05-06 10:46 | 49.09463 | -1.74479 | 31125 ft | 392 kts | 360° |
| 2026-05-06 10:46 | 49.12181 | -1.74368 | 30631 ft | 390 kts | 360° |
| 2026-05-06 10:46 | 49.14890 | -1.74266 | 30149 ft | 388 kts | 360° |
| 2026-05-06 10:46 | 49.17584 | -1.74168 | 29627 ft | 386 kts | 360° |
| 2026-05-06 10:47 | 49.20262 | -1.74071 | 29119 ft | 384 kts | 360° |
| 2026-05-06 10:47 | 49.22921 | -1.73974 | 28639 ft | 381 kts | 359° |
| 2026-05-06 10:47 | 49.25563 | -1.73877 | 28163 ft | 378 kts | 360° |
| 2026-05-06 10:47 | 49.28183 | -1.73777 | 27699 ft | 375 kts | 0° |
| 2026-05-06 10:48 | 49.30784 | -1.73671 | 27238 ft | 373 kts | 360° |
| 2026-05-06 10:48 | 49.33372 | -1.73564 | 26769 ft | 371 kts | 0° |
| 2026-05-06 10:48 | 49.35942 | -1.73463 | 26319 ft | 368 kts | 360° |
| 2026-05-06 10:48 | 49.38496 | -1.73368 | 25875 ft | 366 kts | 359° |
| 2026-05-06 10:49 | 49.41033 | -1.73276 | 25437 ft | 364 kts | 360° |
| 2026-05-06 10:49 | 49.43558 | -1.73182 | 25002 ft | 361 kts | 360° |
| 2026-05-06 10:49 | 49.46061 | -1.73086 | 24567 ft | 359 kts | 359° |
| 2026-05-06 10:49 | 49.48550 | -1.72991 | 24135 ft | 357 kts | 359° |
| 2026-05-06 10:50 | 49.50993 | -1.72895 | 23715 ft | 355 kts | 360° |
| 2026-05-06 10:50 | 49.53453 | -1.72798 | 23261 ft | 353 kts | 359° |
| 2026-05-06 10:50 | 49.55895 | -1.72701 | 22789 ft | 350 kts | 359° |
| 2026-05-06 10:50 | 49.58321 | -1.72605 | 22358 ft | 347 kts | 359° |
| 2026-05-06 10:51 | 49.60711 | -1.72835 | 21935 ft | 342 kts | 348° |
| 2026-05-06 10:51 | 49.63032 | -1.73513 | 21516 ft | 339 kts | 347° |
| 2026-05-06 10:51 | 49.65339 | -1.74196 | 21101 ft | 336 kts | 348° |
| 2026-05-06 10:51 | 49.67628 | -1.74873 | 20708 ft | 334 kts | 348° |
| 2026-05-06 10:52 | 49.69898 | -1.75547 | 20339 ft | 331 kts | 347° |
| 2026-05-06 10:52 | 49.72147 | -1.76213 | 19974 ft | 328 kts | 347° |
| 2026-05-06 10:52 | 49.74384 | -1.76877 | 19594 ft | 327 kts | 347° |
| 2026-05-06 10:52 | 49.76611 | -1.77534 | 19215 ft | 325 kts | 347° |
| 2026-05-06 10:53 | 49.78821 | -1.78186 | 18866 ft | 322 kts | 347° |
| 2026-05-06 10:53 | 49.81014 | -1.78834 | 18485 ft | 320 kts | 348° |
| 2026-05-06 10:53 | 49.83202 | -1.79481 | 18076 ft | 319 kts | 347° |
| 2026-05-06 10:53 | 49.85375 | -1.80127 | 17682 ft | 317 kts | 347° |
| 2026-05-06 10:54 | 49.87531 | -1.80771 | 17303 ft | 314 kts | 348° |
| 2026-05-06 10:54 | 49.89672 | -1.81415 | 16905 ft | 313 kts | 348° |
| 2026-05-06 10:54 | 49.91808 | -1.82058 | 16501 ft | 312 kts | 347° |
| 2026-05-06 10:54 | 49.93936 | -1.82694 | 16133 ft | 310 kts | 346° |
| 2026-05-06 10:55 | 49.96051 | -1.83320 | 15778 ft | 309 kts | 346° |
| 2026-05-06 10:55 | 49.98127 | -1.83935 | 15428 ft | 307 kts | 347° |
| 2026-05-06 10:55 | 50.00240 | -1.84371 | 15095 ft | 307 kts | 358° |
| 2026-05-06 10:55 | 50.02366 | -1.84182 | 14763 ft | 306 kts | 4° |
| 2026-05-06 10:56 | 50.04480 | -1.83885 | 14413 ft | 304 kts | 4° |
| 2026-05-06 10:56 | 50.06586 | -1.83597 | 14071 ft | 303 kts | 4° |
| 2026-05-06 10:56 | 50.08682 | -1.83316 | 13742 ft | 301 kts | 2° |
| 2026-05-06 10:56 | 50.10765 | -1.83036 | 13371 ft | 300 kts | 3° |
| 2026-05-06 10:57 | 50.12836 | -1.82760 | 13004 ft | 298 kts | 2° |
| 2026-05-06 10:57 | 50.14871 | -1.82215 | 12679 ft | 297 kts | 13° |
| 2026-05-06 10:57 | 50.16849 | -1.81329 | 12322 ft | 295 kts | 14° |
| 2026-05-06 10:57 | 50.18819 | -1.80440 | 11969 ft | 293 kts | 14° |
| 2026-05-06 10:58 | 50.20766 | -1.79559 | 11641 ft | 290 kts | 14° |
| 2026-05-06 10:58 | 50.22695 | -1.78686 | 11281 ft | 288 kts | 14° |
| 2026-05-06 10:58 | 50.24617 | -1.77819 | 10926 ft | 286 kts | 14° |
| 2026-05-06 10:58 | 50.26523 | -1.76960 | 10585 ft | 284 kts | 14° |
| 2026-05-06 10:59 | 50.28416 | -1.76102 | 10243 ft | 282 kts | 14° |
| 2026-05-06 10:59 | 50.30297 | -1.75250 | 9895 ft | 280 kts | 14° |
| 2026-05-06 10:59 | 50.32164 | -1.74410 | 9537 ft | 278 kts | 14° |
| 2026-05-06 10:59 | 50.34015 | -1.73577 | 9140 ft | 276 kts | 14° |
| 2026-05-06 11:00 | 50.35857 | -1.72746 | 8741 ft | 274 kts | 15° |
| 2026-05-06 11:00 | 50.37681 | -1.71923 | 8367 ft | 272 kts | 14° |
| 2026-05-06 11:00 | 50.39490 | -1.71103 | 7969 ft | 270 kts | 15° |
| 2026-05-06 11:00 | 50.41290 | -1.70284 | 7559 ft | 269 kts | 14° |
| 2026-05-06 11:01 | 50.43072 | -1.69470 | 7263 ft | 263 kts | 14° |
| 2026-05-06 11:01 | 50.44788 | -1.68686 | 7140 ft | 251 kts | 14° |
| 2026-05-06 11:01 | 50.46424 | -1.67940 | 7004 ft | 239 kts | 14° |
| 2026-05-06 11:01 | 50.47987 | -1.67227 | 6861 ft | 229 kts | 14° |
| 2026-05-06 11:02 | 50.49486 | -1.66545 | 6664 ft | 221 kts | 14° |
| 2026-05-06 11:02 | 50.50913 | -1.65657 | 6363 ft | 220 kts | 21° |
| 2026-05-06 11:02 | 50.52311 | -1.64689 | 6025 ft | 219 kts | 22° |
| 2026-05-06 11:02 | 50.53700 | -1.63730 | 5717 ft | 217 kts | 21° |
| 2026-05-06 11:03 | 50.55075 | -1.62778 | 5393 ft | 215 kts | 22° |
| 2026-05-06 11:03 | 50.56443 | -1.61831 | 5064 ft | 214 kts | 22° |
| 2026-05-06 11:03 | 50.57783 | -1.60903 | 4764 ft | 212 kts | 22° |
| 2026-05-06 11:03 | 50.59129 | -1.59969 | 4448 ft | 211 kts | 23° |
| 2026-05-06 11:04 | 50.60466 | -1.59041 | 4114 ft | 210 kts | 23° |
| 2026-05-06 11:04 | 50.61797 | -1.58115 | 3811 ft | 208 kts | 23° |
| 2026-05-06 11:04 | 50.63108 | -1.57201 | 3681 ft | 207 kts | 23° |
| 2026-05-06 11:04 | 50.64424 | -1.56286 | 3561 ft | 206 kts | 24° |
| 2026-05-06 11:05 | 50.65727 | -1.55382 | 3431 ft | 204 kts | 23° |
| 2026-05-06 11:05 | 50.67021 | -1.54473 | 3304 ft | 203 kts | 25° |
| 2026-05-06 11:05 | 50.68287 | -1.53496 | 3180 ft | 202 kts | 26° |
| 2026-05-06 11:05 | 50.69538 | -1.52491 | 3037 ft | 201 kts | 27° |
| 2026-05-06 11:06 | 50.70787 | -1.51480 | 2911 ft | 202 kts | 27° |
| 2026-05-06 11:06 | 50.72035 | -1.50469 | 2778 ft | 202 kts | 27° |
| 2026-05-06 11:06 | 50.73284 | -1.49458 | 2648 ft | 201 kts | 27° |
| 2026-05-06 11:06 | 50.74532 | -1.48451 | 2559 ft | 202 kts | 27° |
| 2026-05-06 11:07 | 50.75785 | -1.47444 | 2500 ft | 202 kts | 27° |
| 2026-05-06 11:07 | 50.77037 | -1.46440 | 2505 ft | 202 kts | 26° |
| 2026-05-06 11:07 | 50.78291 | -1.45433 | 2504 ft | 200 kts | 26° |
| 2026-05-06 11:07 | 50.79491 | -1.44470 | 2506 ft | 187 kts | 27° |
| 2026-05-06 11:08 | 50.80656 | -1.43669 | 2506 ft | 181 kts | 19° |
| 2026-05-06 11:08 | 50.81829 | -1.43019 | 2356 ft | 174 kts | 20° |
| 2026-05-06 11:08 | 50.82932 | -1.42406 | 2214 ft | 163 kts | 19° |
| 2026-05-06 11:08 | 50.83966 | -1.41829 | 2077 ft | 154 kts | 20° |
| 2026-05-06 11:09 | 50.84968 | -1.41269 | 1951 ft | 152 kts | 19° |
| 2026-05-06 11:09 | 50.85949 | -1.40722 | 1842 ft | 149 kts | 18° |
| 2026-05-06 11:09 | 50.86904 | -1.40191 | 1772 ft | 138 kts | 18° |
| 2026-05-06 11:09 | 50.87790 | -1.39700 | 1668 ft | 134 kts | 18° |
| 2026-05-06 11:10 | 50.88655 | -1.39221 | 1452 ft | 130 kts | 18° |
| 2026-05-06 11:10 | 50.89517 | -1.38739 | 1225 ft | 130 kts | 19° |
| 2026-05-06 11:10 | 50.90374 | -1.38251 | 990 ft | 132 kts | 19° |
| 2026-05-06 11:10 | 50.91238 | -1.37783 | 745 ft | 128 kts | 18° |
| 2026-05-06 11:11 | 50.92101 | -1.37305 | 496 ft | 132 kts | 19° |
| 2026-05-06 11:11 | 50.92964 | -1.36832 | 352 ft | 131 kts | 20° |
| 2026-05-06 11:11 | 50.93824 | -1.36351 | 163 ft | 130 kts | 22° |
| 2026-05-06 11:11 | 50.94654 | -1.35887 | 45 ft | 116 kts | 20° |
| 2026-05-06 11:12 | 50.95189 | -1.35586 | 47 ft | 40 kts | 19° |
| 2026-05-06 11:12 | 50.95424 | -1.35455 | 52 ft | 32 kts | 19° |
| 2026-05-06 11:12 | 50.95618 | -1.35349 | 54 ft | 23 kts | 19° |
| 2026-05-06 11:12 | 50.95707 | -1.35329 | 58 ft | 6 kts | 51° |
| 2026-05-06 11:13 | 50.95676 | -1.35315 | 53 ft | 15 kts | 197° |
| 2026-05-06 11:13 | 50.95552 | -1.35389 | 56 ft | 20 kts | 197° |
| 2026-05-06 11:13 | 50.95416 | -1.35461 | 51 ft | 21 kts | 201° |
| 2026-05-06 11:13 | 50.95278 | -1.35538 | 46 ft | 22 kts | 199° |
| 2026-05-06 11:14 | 50.95140 | -1.35615 | 47 ft | 20 kts | 200° |
| 2026-05-06 11:14 | 50.95028 | -1.35687 | 45 ft | 12 kts | 225° |
| 2026-05-06 11:14 | 50.95032 | -1.35782 | 45 ft | 6 kts | 288° |
| 2026-05-06 11:14 | 50.95042 | -1.35829 | 49 ft | 3 kts | 289° |
| 2026-05-06 11:15 | 50.95051 | -1.35870 | 48 ft | 6 kts | 289° |
| 2026-05-06 11:15 | 50.95040 | -1.35928 | 47 ft | 7 kts | 218° |
| 2026-05-06 11:15 | 50.94994 | -1.35954 | 49 ft | 7 kts | 198° |
| 2026-05-06 11:15 | 50.94946 | -1.35981 | 48 ft | 8 kts | 199° |
| 2026-05-06 11:16 | 50.94899 | -1.36015 | 45 ft | 7 kts | 225° |
| 2026-05-06 11:16 | 50.94902 | -1.36078 | 44 ft | 5 kts | 310° |
| 2026-05-06 11:16 | 50.94937 | -1.36068 | 47 ft | 6 kts | 19° |
| 2026-05-06 11:16 | 50.94957 | -1.36058 | 47 ft | 0 kts | 18° |